sensor_id;sensor_type;location;lat;lon;timestamp;P1;durP1;ratioP1;P2;durP2;ratioP2
5507;SDS011;2776;51.046;6.772;2023-01-04T00:01:24;2.47;;;1.13;;
5507;SDS011;2776;51.046;6.772;2023-01-04T00:03:51;4.87;;;1.40;;
5507;SDS011;2776;51.046;6.772;2023-01-04T00:06:19;4.00;;;1.20;;
5507;SDS011;2776;51.046;6.772;2023-01-04T00:08:45;4.53;;;1.47;;
5507;SDS011;2776;51.046;6.772;2023-01-04T00:11:13;3.37;;;1.07;;
5507;SDS011;2776;51.046;6.772;2023-01-04T00:13:41;5.57;;;1.00;;
5507;SDS011;2776;51.046;6.772;2023-01-04T00:16:09;3.13;;;1.10;;
5507;SDS011;2776;51.046;6.772;2023-01-04T00:18:38;4.13;;;1.00;;
5507;SDS011;2776;51.046;6.772;2023-01-04T00:21:05;4.80;;;1.37;;
5507;SDS011;2776;51.046;6.772;2023-01-04T00:23:35;3.40;;;1.10;;
5507;SDS011;2776;51.046;6.772;2023-01-04T00:26:05;8.27;;;1.30;;
5507;SDS011;2776;51.046;6.772;2023-01-04T00:28:32;6.47;;;1.40;;
5507;SDS011;2776;51.046;6.772;2023-01-04T00:31:00;3.50;;;0.90;;
5507;SDS011;2776;51.046;6.772;2023-01-04T00:33:29;5.10;;;1.10;;
5507;SDS011;2776;51.046;6.772;2023-01-04T00:36:00;1.93;;;0.90;;
5507;SDS011;2776;51.046;6.772;2023-01-04T00:38:28;3.37;;;0.87;;
5507;SDS011;2776;51.046;6.772;2023-01-04T00:40:57;4.83;;;1.90;;
5507;SDS011;2776;51.046;6.772;2023-01-04T00:43:23;2.60;;;1.00;;
5507;SDS011;2776;51.046;6.772;2023-01-04T00:45:50;4.53;;;1.00;;
5507;SDS011;2776;51.046;6.772;2023-01-04T00:48:17;2.93;;;1.03;;
5507;SDS011;2776;51.046;6.772;2023-01-04T00:50:44;2.77;;;1.10;;
5507;SDS011;2776;51.046;6.772;2023-01-04T00:53:11;4.20;;;1.03;;
5507;SDS011;2776;51.046;6.772;2023-01-04T00:55:39;2.97;;;1.13;;
5507;SDS011;2776;51.046;6.772;2023-01-04T00:58:07;6.43;;;1.07;;
5507;SDS011;2776;51.046;6.772;2023-01-04T01:00:34;3.30;;;1.30;;
5507;SDS011;2776;51.046;6.772;2023-01-04T01:03:01;5.93;;;1.53;;
5507;SDS011;2776;51.046;6.772;2023-01-04T01:05:28;5.73;;;1.33;;
5507;SDS011;2776;51.046;6.772;2023-01-04T01:07:55;4.30;;;1.57;;
5507;SDS011;2776;51.046;6.772;2023-01-04T01:10:22;7.57;;;1.30;;
5507;SDS011;2776;51.046;6.772;2023-01-04T01:12:49;3.20;;;1.10;;
5507;SDS011;2776;51.046;6.772;2023-01-04T01:15:17;3.47;;;1.20;;
5507;SDS011;2776;51.046;6.772;2023-01-04T01:17:44;5.03;;;1.37;;
5507;SDS011;2776;51.046;6.772;2023-01-04T01:20:11;4.90;;;0.87;;
5507;SDS011;2776;51.046;6.772;2023-01-04T01:22:38;5.80;;;1.43;;
5507;SDS011;2776;51.046;6.772;2023-01-04T01:25:05;4.63;;;1.30;;
5507;SDS011;2776;51.046;6.772;2023-01-04T01:27:32;7.50;;;1.10;;
5507;SDS011;2776;51.046;6.772;2023-01-04T01:29:59;4.17;;;1.20;;
5507;SDS011;2776;51.046;6.772;2023-01-04T01:32:27;5.43;;;1.23;;
5507;SDS011;2776;51.046;6.772;2023-01-04T01:34:53;3.60;;;1.00;;
5507;SDS011;2776;51.046;6.772;2023-01-04T01:37:20;2.63;;;1.30;;
5507;SDS011;2776;51.046;6.772;2023-01-04T01:39:47;3.50;;;1.30;;
5507;SDS011;2776;51.046;6.772;2023-01-04T01:42:17;3.40;;;1.10;;
5507;SDS011;2776;51.046;6.772;2023-01-04T01:44:59;4.03;;;1.10;;
5507;SDS011;2776;51.046;6.772;2023-01-04T01:47:30;3.20;;;1.00;;
5507;SDS011;2776;51.046;6.772;2023-01-04T01:50:03;4.00;;;1.13;;
5507;SDS011;2776;51.046;6.772;2023-01-04T01:52:40;2.07;;;1.03;;
5507;SDS011;2776;51.046;6.772;2023-01-04T01:55:08;5.70;;;1.70;;
5507;SDS011;2776;51.046;6.772;2023-01-04T01:57:37;4.97;;;1.37;;
5507;SDS011;2776;51.046;6.772;2023-01-04T02:00:06;2.40;;;1.00;;
5507;SDS011;2776;51.046;6.772;2023-01-04T02:02:38;4.30;;;1.27;;
5507;SDS011;2776;51.046;6.772;2023-01-04T02:05:13;4.90;;;1.30;;
5507;SDS011;2776;51.046;6.772;2023-01-04T02:07:41;5.07;;;1.13;;
5507;SDS011;2776;51.046;6.772;2023-01-04T02:10:09;3.23;;;1.00;;
5507;SDS011;2776;51.046;6.772;2023-01-04T02:12:36;2.83;;;0.87;;
5507;SDS011;2776;51.046;6.772;2023-01-04T02:15:03;4.30;;;0.90;;
5507;SDS011;2776;51.046;6.772;2023-01-04T02:17:33;3.97;;;0.83;;
5507;SDS011;2776;51.046;6.772;2023-01-04T02:20:26;3.53;;;0.93;;
5507;SDS011;2776;51.046;6.772;2023-01-04T02:32:06;4.37;;;1.10;;
5507;SDS011;2776;51.046;6.772;2023-01-04T02:34:43;6.67;;;1.27;;
5507;SDS011;2776;51.046;6.772;2023-01-04T02:37:22;4.37;;;1.13;;
5507;SDS011;2776;51.046;6.772;2023-01-04T02:39:59;3.00;;;1.13;;
5507;SDS011;2776;51.046;6.772;2023-01-04T02:42:35;4.37;;;0.80;;
5507;SDS011;2776;51.046;6.772;2023-01-04T02:45:25;3.07;;;1.00;;
5507;SDS011;2776;51.046;6.772;2023-01-04T02:48:01;3.83;;;0.90;;
5507;SDS011;2776;51.046;6.772;2023-01-04T02:50:50;1.20;;;0.70;;
5507;SDS011;2776;51.046;6.772;2023-01-04T02:53:19;1.80;;;0.60;;
5507;SDS011;2776;51.046;6.772;2023-01-04T02:55:48;2.03;;;0.80;;
5507;SDS011;2776;51.046;6.772;2023-01-04T02:58:27;2.77;;;1.10;;
5507;SDS011;2776;51.046;6.772;2023-01-04T03:01:04;2.23;;;0.67;;
5507;SDS011;2776;51.046;6.772;2023-01-04T03:03:59;0.53;;;0.50;;
5507;SDS011;2776;51.046;6.772;2023-01-04T03:06:50;1.43;;;0.40;;
5507;SDS011;2776;51.046;6.772;2023-01-04T03:09:22;1.50;;;0.40;;
5507;SDS011;2776;51.046;6.772;2023-01-04T03:11:55;2.37;;;0.50;;
5507;SDS011;2776;51.046;6.772;2023-01-04T03:14:42;0.70;;;0.70;;
5507;SDS011;2776;51.046;6.772;2023-01-04T03:17:14;1.47;;;0.50;;
5507;SDS011;2776;51.046;6.772;2023-01-04T03:19:47;0.30;;;0.30;;
5507;SDS011;2776;51.046;6.772;2023-01-04T03:22:21;0.77;;;0.40;;
5507;SDS011;2776;51.046;6.772;2023-01-04T03:25:09;1.23;;;0.40;;
5507;SDS011;2776;51.046;6.772;2023-01-04T03:27:56;0.67;;;0.50;;
5507;SDS011;2776;51.046;6.772;2023-01-04T03:30:44;0.50;;;0.30;;
5507;SDS011;2776;51.046;6.772;2023-01-04T03:33:34;1.00;;;0.33;;
5507;SDS011;2776;51.046;6.772;2023-01-04T03:36:23;0.73;;;0.30;;
5507;SDS011;2776;51.046;6.772;2023-01-04T03:38:58;0.63;;;0.30;;
5507;SDS011;2776;51.046;6.772;2023-01-04T03:41:51;0.93;;;0.23;;
5507;SDS011;2776;51.046;6.772;2023-01-04T03:44:42;0.60;;;0.43;;
5507;SDS011;2776;51.046;6.772;2023-01-04T03:47:33;0.23;;;0.20;;
5507;SDS011;2776;51.046;6.772;2023-01-04T03:50:23;0.87;;;0.40;;
5507;SDS011;2776;51.046;6.772;2023-01-04T03:52:53;0.27;;;0.27;;
5507;SDS011;2776;51.046;6.772;2023-01-04T03:55:23;0.30;;;0.30;;
5507;SDS011;2776;51.046;6.772;2023-01-04T03:57:53;1.73;;;0.30;;
5507;SDS011;2776;51.046;6.772;2023-01-04T04:00:20;0.43;;;0.27;;
5507;SDS011;2776;51.046;6.772;2023-01-04T04:02:47;1.13;;;0.27;;
5507;SDS011;2776;51.046;6.772;2023-01-04T04:05:15;0.27;;;0.20;;
5507;SDS011;2776;51.046;6.772;2023-01-04T04:08:03;0.20;;;0.20;;
5507;SDS011;2776;51.046;6.772;2023-01-04T04:10:47;0.47;;;0.40;;
5507;SDS011;2776;51.046;6.772;2023-01-04T04:13:14;0.70;;;0.20;;
5507;SDS011;2776;51.046;6.772;2023-01-04T04:15:41;0.50;;;0.20;;
5507;SDS011;2776;51.046;6.772;2023-01-04T04:18:08;0.13;;;0.13;;
5507;SDS011;2776;51.046;6.772;2023-01-04T04:20:35;0.43;;;0.27;;
5507;SDS011;2776;51.046;6.772;2023-01-04T04:23:03;0.10;;;0.10;;
5507;SDS011;2776;51.046;6.772;2023-01-04T04:25:30;0.23;;;0.23;;
5507;SDS011;2776;51.046;6.772;2023-01-04T04:27:56;0.57;;;0.27;;
5507;SDS011;2776;51.046;6.772;2023-01-04T04:30:23;0.73;;;0.30;;
5507;SDS011;2776;51.046;6.772;2023-01-04T04:32:50;0.20;;;0.20;;
5507;SDS011;2776;51.046;6.772;2023-01-04T04:35:17;0.50;;;0.10;;
5507;SDS011;2776;51.046;6.772;2023-01-04T04:37:43;0.30;;;0.10;;
5507;SDS011;2776;51.046;6.772;2023-01-04T04:40:12;0.83;;;0.20;;
5507;SDS011;2776;51.046;6.772;2023-01-04T04:43:06;0.10;;;0.10;;
5507;SDS011;2776;51.046;6.772;2023-01-04T04:45:32;0.10;;;0.10;;
5507;SDS011;2776;51.046;6.772;2023-01-04T04:47:59;0.23;;;0.20;;
5507;SDS011;2776;51.046;6.772;2023-01-04T04:50:26;0.47;;;0.30;;
5507;SDS011;2776;51.046;6.772;2023-01-04T04:52:52;0.30;;;0.30;;
5507;SDS011;2776;51.046;6.772;2023-01-04T04:55:21;1.27;;;0.20;;
5507;SDS011;2776;51.046;6.772;2023-01-04T04:57:47;0.23;;;0.23;;
5507;SDS011;2776;51.046;6.772;2023-01-04T05:00:14;0.83;;;0.43;;
5507;SDS011;2776;51.046;6.772;2023-01-04T05:02:41;0.10;;;0.10;;
5507;SDS011;2776;51.046;6.772;2023-01-04T05:05:08;0.30;;;0.17;;
5507;SDS011;2776;51.046;6.772;2023-01-04T05:07:35;0.23;;;0.10;;
5507;SDS011;2776;51.046;6.772;2023-01-04T05:10:02;0.67;;;0.20;;
5507;SDS011;2776;51.046;6.772;2023-01-04T05:12:31;0.10;;;0.10;;
5507;SDS011;2776;51.046;6.772;2023-01-04T05:15:15;0.20;;;0.20;;
5507;SDS011;2776;51.046;6.772;2023-01-04T05:17:41;0.20;;;0.20;;
5507;SDS011;2776;51.046;6.772;2023-01-04T05:20:08;0.13;;;0.13;;
5507;SDS011;2776;51.046;6.772;2023-01-04T05:22:36;1.10;;;0.30;;
5507;SDS011;2776;51.046;6.772;2023-01-04T05:25:02;1.13;;;0.20;;
5507;SDS011;2776;51.046;6.772;2023-01-04T05:27:31;0.10;;;0.10;;
5507;SDS011;2776;51.046;6.772;2023-01-04T05:29:58;0.47;;;0.23;;
5507;SDS011;2776;51.046;6.772;2023-01-04T05:32:42;0.20;;;0.20;;
5507;SDS011;2776;51.046;6.772;2023-01-04T05:35:09;0.30;;;0.20;;
5507;SDS011;2776;51.046;6.772;2023-01-04T05:37:36;0.20;;;0.20;;
5507;SDS011;2776;51.046;6.772;2023-01-04T05:40:03;0.40;;;0.10;;
5507;SDS011;2776;51.046;6.772;2023-01-04T05:42:31;0.70;;;0.30;;
5507;SDS011;2776;51.046;6.772;2023-01-04T05:44:58;0.57;;;0.23;;
5507;SDS011;2776;51.046;6.772;2023-01-04T05:47:25;1.13;;;0.43;;
5507;SDS011;2776;51.046;6.772;2023-01-04T05:49:52;0.37;;;0.30;;
5507;SDS011;2776;51.046;6.772;2023-01-04T05:52:19;0.10;;;0.10;;
5507;SDS011;2776;51.046;6.772;2023-01-04T05:54:46;0.03;;;0.03;;
5507;SDS011;2776;51.046;6.772;2023-01-04T05:57:13;0.20;;;0.20;;
5507;SDS011;2776;51.046;6.772;2023-01-04T05:59:42;0.30;;;0.10;;
5507;SDS011;2776;51.046;6.772;2023-01-04T06:02:13;0.10;;;0.10;;
5507;SDS011;2776;51.046;6.772;2023-01-04T06:04:41;0.20;;;0.20;;
5507;SDS011;2776;51.046;6.772;2023-01-04T06:07:08;0.20;;;0.20;;
5507;SDS011;2776;51.046;6.772;2023-01-04T06:09:35;0.73;;;0.33;;
5507;SDS011;2776;51.046;6.772;2023-01-04T06:12:02;0.10;;;0.10;;
5507;SDS011;2776;51.046;6.772;2023-01-04T06:14:29;0.20;;;0.20;;
5507;SDS011;2776;51.046;6.772;2023-01-04T06:16:57;1.30;;;0.20;;
5507;SDS011;2776;51.046;6.772;2023-01-04T06:19:24;0.20;;;0.20;;
5507;SDS011;2776;51.046;6.772;2023-01-04T06:21:51;0.20;;;0.10;;
5507;SDS011;2776;51.046;6.772;2023-01-04T06:24:18;0.10;;;0.10;;
5507;SDS011;2776;51.046;6.772;2023-01-04T06:26:45;0.60;;;0.20;;
5507;SDS011;2776;51.046;6.772;2023-01-04T06:29:12;0.23;;;0.20;;
5507;SDS011;2776;51.046;6.772;2023-01-04T06:31:39;2.93;;;0.30;;
5507;SDS011;2776;51.046;6.772;2023-01-04T06:34:09;0.20;;;0.20;;
5507;SDS011;2776;51.046;6.772;2023-01-04T06:36:36;0.27;;;0.17;;
5507;SDS011;2776;51.046;6.772;2023-01-04T06:39:03;0.87;;;0.20;;
5507;SDS011;2776;51.046;6.772;2023-01-04T06:41:32;0.87;;;0.20;;
5507;SDS011;2776;51.046;6.772;2023-01-04T06:43:59;0.77;;;0.20;;
5507;SDS011;2776;51.046;6.772;2023-01-04T06:46:26;0.30;;;0.10;;
5507;SDS011;2776;51.046;6.772;2023-01-04T06:48:53;0.20;;;0.20;;
5507;SDS011;2776;51.046;6.772;2023-01-04T06:51:21;0.10;;;0.10;;
5507;SDS011;2776;51.046;6.772;2023-01-04T06:53:48;0.20;;;0.10;;
5507;SDS011;2776;51.046;6.772;2023-01-04T06:56:15;0.20;;;0.10;;
5507;SDS011;2776;51.046;6.772;2023-01-04T06:58:42;0.10;;;0.10;;
5507;SDS011;2776;51.046;6.772;2023-01-04T07:01:08;0.93;;;0.20;;
5507;SDS011;2776;51.046;6.772;2023-01-04T07:03:35;0.10;;;0.10;;
5507;SDS011;2776;51.046;6.772;2023-01-04T07:06:02;0.17;;;0.17;;
5507;SDS011;2776;51.046;6.772;2023-01-04T07:08:32;0.60;;;0.60;;
5507;SDS011;2776;51.046;6.772;2023-01-04T07:10:59;0.17;;;0.13;;
5507;SDS011;2776;51.046;6.772;2023-01-04T07:13:26;1.50;;;0.20;;
5507;SDS011;2776;51.046;6.772;2023-01-04T07:15:53;0.30;;;0.30;;
5507;SDS011;2776;51.046;6.772;2023-01-04T07:18:20;0.83;;;0.20;;
5507;SDS011;2776;51.046;6.772;2023-01-04T07:20:47;1.13;;;0.20;;
5507;SDS011;2776;51.046;6.772;2023-01-04T07:23:14;0.60;;;0.20;;
5507;SDS011;2776;51.046;6.772;2023-01-04T07:25:42;0.20;;;0.20;;
5507;SDS011;2776;51.046;6.772;2023-01-04T07:28:09;0.10;;;0.10;;
5507;SDS011;2776;51.046;6.772;2023-01-04T07:30:35;0.30;;;0.10;;
5507;SDS011;2776;51.046;6.772;2023-01-04T07:33:02;0.10;;;0.10;;
5507;SDS011;2776;51.046;6.772;2023-01-04T07:35:30;0.10;;;0.10;;
5507;SDS011;2776;51.046;6.772;2023-01-04T07:37:56;0.20;;;0.20;;
5507;SDS011;2776;51.046;6.772;2023-01-04T07:40:23;0.20;;;0.20;;
5507;SDS011;2776;51.046;6.772;2023-01-04T07:42:53;0.20;;;0.20;;
5507;SDS011;2776;51.046;6.772;2023-01-04T07:45:21;1.67;;;0.20;;
5507;SDS011;2776;51.046;6.772;2023-01-04T07:47:48;0.20;;;0.20;;
5507;SDS011;2776;51.046;6.772;2023-01-04T07:50:15;0.40;;;0.20;;
5507;SDS011;2776;51.046;6.772;2023-01-04T07:52:42;3.10;;;0.30;;
5507;SDS011;2776;51.046;6.772;2023-01-04T07:55:09;0.23;;;0.20;;
5507;SDS011;2776;51.046;6.772;2023-01-04T07:57:35;0.13;;;0.13;;
5507;SDS011;2776;51.046;6.772;2023-01-04T08:00:04;0.47;;;0.40;;
5507;SDS011;2776;51.046;6.772;2023-01-04T08:02:31;0.20;;;0.13;;
5507;SDS011;2776;51.046;6.772;2023-01-04T08:04:58;0.23;;;0.20;;
5507;SDS011;2776;51.046;6.772;2023-01-04T08:07:25;0.23;;;0.20;;
5507;SDS011;2776;51.046;6.772;2023-01-04T08:09:52;1.43;;;0.20;;
5507;SDS011;2776;51.046;6.772;2023-01-04T08:12:19;0.30;;;0.30;;
5507;SDS011;2776;51.046;6.772;2023-01-04T08:14:45;0.50;;;0.27;;
5507;SDS011;2776;51.046;6.772;2023-01-04T08:17:13;0.20;;;0.20;;
5507;SDS011;2776;51.046;6.772;2023-01-04T08:19:40;0.57;;;0.30;;
5507;SDS011;2776;51.046;6.772;2023-01-04T08:22:07;0.20;;;0.20;;
5507;SDS011;2776;51.046;6.772;2023-01-04T08:24:34;0.40;;;0.30;;
5507;SDS011;2776;51.046;6.772;2023-01-04T08:27:00;0.37;;;0.33;;
5507;SDS011;2776;51.046;6.772;2023-01-04T08:29:27;0.40;;;0.20;;
5507;SDS011;2776;51.046;6.772;2023-01-04T08:31:54;0.30;;;0.20;;
5507;SDS011;2776;51.046;6.772;2023-01-04T08:34:22;0.40;;;0.30;;
5507;SDS011;2776;51.046;6.772;2023-01-04T08:36:50;0.30;;;0.30;;
5507;SDS011;2776;51.046;6.772;2023-01-04T08:39:17;0.20;;;0.20;;
5507;SDS011;2776;51.046;6.772;2023-01-04T08:41:45;1.40;;;0.30;;
5507;SDS011;2776;51.046;6.772;2023-01-04T08:44:18;0.77;;;0.30;;
5507;SDS011;2776;51.046;6.772;2023-01-04T08:46:46;0.60;;;0.23;;
5507;SDS011;2776;51.046;6.772;2023-01-04T08:49:14;0.30;;;0.27;;
5507;SDS011;2776;51.046;6.772;2023-01-04T08:51:42;0.73;;;0.40;;
5507;SDS011;2776;51.046;6.772;2023-01-04T08:54:10;0.60;;;0.40;;
5507;SDS011;2776;51.046;6.772;2023-01-04T08:56:38;0.20;;;0.20;;
5507;SDS011;2776;51.046;6.772;2023-01-04T08:59:05;1.67;;;0.30;;
5507;SDS011;2776;51.046;6.772;2023-01-04T09:01:32;0.30;;;0.30;;
5507;SDS011;2776;51.046;6.772;2023-01-04T09:04:00;1.43;;;0.40;;
5507;SDS011;2776;51.046;6.772;2023-01-04T09:06:27;3.13;;;0.67;;
5507;SDS011;2776;51.046;6.772;2023-01-04T09:08:56;0.27;;;0.27;;
5507;SDS011;2776;51.046;6.772;2023-01-04T09:11:23;0.20;;;0.20;;
5507;SDS011;2776;51.046;6.772;2023-01-04T09:13:53;0.30;;;0.20;;
5507;SDS011;2776;51.046;6.772;2023-01-04T09:16:21;1.13;;;0.20;;
5507;SDS011;2776;51.046;6.772;2023-01-04T09:18:48;0.20;;;0.20;;
5507;SDS011;2776;51.046;6.772;2023-01-04T09:21:15;0.23;;;0.13;;
5507;SDS011;2776;51.046;6.772;2023-01-04T09:23:43;0.20;;;0.20;;
5507;SDS011;2776;51.046;6.772;2023-01-04T09:26:13;0.30;;;0.30;;
5507;SDS011;2776;51.046;6.772;2023-01-04T09:28:41;0.20;;;0.20;;
5507;SDS011;2776;51.046;6.772;2023-01-04T09:31:09;0.10;;;0.10;;
5507;SDS011;2776;51.046;6.772;2023-01-04T09:33:37;0.60;;;0.30;;
5507;SDS011;2776;51.046;6.772;2023-01-04T09:36:05;0.40;;;0.20;;
5507;SDS011;2776;51.046;6.772;2023-01-04T09:38:33;0.73;;;0.23;;
5507;SDS011;2776;51.046;6.772;2023-01-04T09:41:02;0.30;;;0.20;;
5507;SDS011;2776;51.046;6.772;2023-01-04T09:43:38;0.40;;;0.30;;
5507;SDS011;2776;51.046;6.772;2023-01-04T09:46:11;1.10;;;0.20;;
5507;SDS011;2776;51.046;6.772;2023-01-04T09:48:45;0.10;;;0.10;;
5507;SDS011;2776;51.046;6.772;2023-01-04T09:51:16;2.17;;;0.50;;
5507;SDS011;2776;51.046;6.772;2023-01-04T09:53:48;2.27;;;0.40;;
5507;SDS011;2776;51.046;6.772;2023-01-04T09:56:19;0.30;;;0.30;;
5507;SDS011;2776;51.046;6.772;2023-01-04T09:58:52;0.30;;;0.30;;
5507;SDS011;2776;51.046;6.772;2023-01-04T10:01:20;0.30;;;0.30;;
5507;SDS011;2776;51.046;6.772;2023-01-04T10:03:52;0.90;;;0.30;;
5507;SDS011;2776;51.046;6.772;2023-01-04T10:06:24;0.47;;;0.20;;
5507;SDS011;2776;51.046;6.772;2023-01-04T10:08:51;1.20;;;0.30;;
5507;SDS011;2776;51.046;6.772;2023-01-04T10:11:23;0.70;;;0.40;;
5507;SDS011;2776;51.046;6.772;2023-01-04T10:14:03;1.63;;;0.67;;
5507;SDS011;2776;51.046;6.772;2023-01-04T10:16:45;0.70;;;0.30;;
5507;SDS011;2776;51.046;6.772;2023-01-04T10:19:25;1.60;;;0.30;;
5507;SDS011;2776;51.046;6.772;2023-01-04T10:22:04;3.03;;;0.53;;
5507;SDS011;2776;51.046;6.772;2023-01-04T10:24:38;0.97;;;0.30;;
5507;SDS011;2776;51.046;6.772;2023-01-04T10:27:12;1.17;;;0.40;;
5507;SDS011;2776;51.046;6.772;2023-01-04T10:29:53;0.70;;;0.30;;
5507;SDS011;2776;51.046;6.772;2023-01-04T10:32:40;0.77;;;0.40;;
5507;SDS011;2776;51.046;6.772;2023-01-04T10:35:15;1.13;;;0.47;;
5507;SDS011;2776;51.046;6.772;2023-01-04T10:37:46;1.53;;;0.30;;
5507;SDS011;2776;51.046;6.772;2023-01-04T10:40:15;0.60;;;0.50;;
5507;SDS011;2776;51.046;6.772;2023-01-04T10:42:44;1.23;;;0.80;;
5507;SDS011;2776;51.046;6.772;2023-01-04T10:45:21;1.27;;;0.50;;
5507;SDS011;2776;51.046;6.772;2023-01-04T10:47:58;1.37;;;0.60;;
5507;SDS011;2776;51.046;6.772;2023-01-04T10:50:32;1.97;;;1.00;;
5507;SDS011;2776;51.046;6.772;2023-01-04T10:53:09;3.27;;;1.40;;
5507;SDS011;2776;51.046;6.772;2023-01-04T10:55:42;1.43;;;0.80;;
5507;SDS011;2776;51.046;6.772;2023-01-04T10:58:16;2.43;;;0.87;;
5507;SDS011;2776;51.046;6.772;2023-01-04T11:00:52;2.60;;;0.70;;
5507;SDS011;2776;51.046;6.772;2023-01-04T11:03:23;2.00;;;0.60;;
5507;SDS011;2776;51.046;6.772;2023-01-04T11:05:53;2.33;;;0.97;;
5507;SDS011;2776;51.046;6.772;2023-01-04T11:08:27;1.10;;;0.70;;
5507;SDS011;2776;51.046;6.772;2023-01-04T11:10:59;1.77;;;0.70;;
5507;SDS011;2776;51.046;6.772;2023-01-04T11:13:29;0.73;;;0.50;;
5507;SDS011;2776;51.046;6.772;2023-01-04T11:15:58;1.57;;;0.70;;
5507;SDS011;2776;51.046;6.772;2023-01-04T11:18:26;3.37;;;0.87;;
5507;SDS011;2776;51.046;6.772;2023-01-04T11:20:54;0.97;;;0.40;;
5507;SDS011;2776;51.046;6.772;2023-01-04T11:23:20;1.30;;;0.30;;
5507;SDS011;2776;51.046;6.772;2023-01-04T11:25:48;2.73;;;0.60;;
5507;SDS011;2776;51.046;6.772;2023-01-04T11:28:20;1.07;;;0.40;;
5507;SDS011;2776;51.046;6.772;2023-01-04T11:30:53;0.87;;;0.30;;
5507;SDS011;2776;51.046;6.772;2023-01-04T11:33:25;0.93;;;0.20;;
5507;SDS011;2776;51.046;6.772;2023-01-04T11:35:52;1.10;;;0.60;;
5507;SDS011;2776;51.046;6.772;2023-01-04T11:38:22;1.53;;;0.40;;
5507;SDS011;2776;51.046;6.772;2023-01-04T11:40:54;1.93;;;0.53;;
5507;SDS011;2776;51.046;6.772;2023-01-04T11:43:23;1.30;;;0.53;;
5507;SDS011;2776;51.046;6.772;2023-01-04T11:45:54;0.33;;;0.30;;
5507;SDS011;2776;51.046;6.772;2023-01-04T11:48:35;1.03;;;0.40;;
5507;SDS011;2776;51.046;6.772;2023-01-04T11:51:04;0.70;;;0.50;;
5507;SDS011;2776;51.046;6.772;2023-01-04T11:53:40;1.47;;;0.53;;
5507;SDS011;2776;51.046;6.772;2023-01-04T11:56:08;0.83;;;0.23;;
5507;SDS011;2776;51.046;6.772;2023-01-04T11:58:41;3.43;;;0.50;;
5507;SDS011;2776;51.046;6.772;2023-01-04T12:01:18;0.97;;;0.53;;
5507;SDS011;2776;51.046;6.772;2023-01-04T12:03:47;1.60;;;0.60;;
5507;SDS011;2776;51.046;6.772;2023-01-04T12:06:16;0.53;;;0.50;;
5507;SDS011;2776;51.046;6.772;2023-01-04T12:08:46;1.53;;;0.60;;
5507;SDS011;2776;51.046;6.772;2023-01-04T12:11:16;1.73;;;0.57;;
5507;SDS011;2776;51.046;6.772;2023-01-04T12:13:45;0.50;;;0.30;;
5507;SDS011;2776;51.046;6.772;2023-01-04T12:16:15;0.83;;;0.50;;
5507;SDS011;2776;51.046;6.772;2023-01-04T12:18:48;1.57;;;0.67;;
5507;SDS011;2776;51.046;6.772;2023-01-04T12:21:17;0.60;;;0.60;;
5507;SDS011;2776;51.046;6.772;2023-01-04T12:23:45;1.60;;;0.63;;
5507;SDS011;2776;51.046;6.772;2023-01-04T12:26:12;0.87;;;0.60;;
5507;SDS011;2776;51.046;6.772;2023-01-04T12:28:41;0.93;;;0.40;;
5507;SDS011;2776;51.046;6.772;2023-01-04T12:33:56;2.10;;;0.70;;
5507;SDS011;2776;51.046;6.772;2023-01-04T12:39:29;2.37;;;0.80;;
5507;SDS011;2776;51.046;6.772;2023-01-04T12:42:15;0.97;;;0.40;;
5507;SDS011;2776;51.046;6.772;2023-01-04T12:45:02;0.43;;;0.43;;
5507;SDS011;2776;51.046;6.772;2023-01-04T12:47:39;1.37;;;0.60;;
5507;SDS011;2776;51.046;6.772;2023-01-04T12:50:26;0.77;;;0.63;;
5507;SDS011;2776;51.046;6.772;2023-01-04T12:52:56;1.27;;;0.60;;
5507;SDS011;2776;51.046;6.772;2023-01-04T12:58:41;2.10;;;0.90;;
5507;SDS011;2776;51.046;6.772;2023-01-04T13:01:29;2.70;;;0.70;;
5507;SDS011;2776;51.046;6.772;2023-01-04T13:03:57;3.77;;;1.67;;
5507;SDS011;2776;51.046;6.772;2023-01-04T13:06:27;0.63;;;0.60;;
5507;SDS011;2776;51.046;6.772;2023-01-04T13:08:57;1.17;;;0.60;;
5507;SDS011;2776;51.046;6.772;2023-01-04T13:11:32;2.20;;;0.80;;
5507;SDS011;2776;51.046;6.772;2023-01-04T13:14:11;0.97;;;0.50;;
5507;SDS011;2776;51.046;6.772;2023-01-04T13:16:46;1.17;;;0.60;;
5507;SDS011;2776;51.046;6.772;2023-01-04T13:19:20;1.60;;;0.60;;
5507;SDS011;2776;51.046;6.772;2023-01-04T13:21:51;1.40;;;0.30;;
5507;SDS011;2776;51.046;6.772;2023-01-04T13:24:20;0.97;;;0.60;;
5507;SDS011;2776;51.046;6.772;2023-01-04T13:26:48;0.63;;;0.30;;
5507;SDS011;2776;51.046;6.772;2023-01-04T13:29:18;3.83;;;1.10;;
5507;SDS011;2776;51.046;6.772;2023-01-04T13:31:50;0.40;;;0.40;;
5507;SDS011;2776;51.046;6.772;2023-01-04T13:34:23;1.53;;;0.50;;
5507;SDS011;2776;51.046;6.772;2023-01-04T13:37:01;1.30;;;0.57;;
5507;SDS011;2776;51.046;6.772;2023-01-04T13:39:32;0.53;;;0.40;;
5507;SDS011;2776;51.046;6.772;2023-01-04T13:41:59;1.10;;;0.30;;
5507;SDS011;2776;51.046;6.772;2023-01-04T13:44:36;0.50;;;0.30;;
5507;SDS011;2776;51.046;6.772;2023-01-04T13:47:25;1.80;;;0.40;;
5507;SDS011;2776;51.046;6.772;2023-01-04T13:49:52;2.60;;;0.60;;
5507;SDS011;2776;51.046;6.772;2023-01-04T13:52:21;0.87;;;0.53;;
5507;SDS011;2776;51.046;6.772;2023-01-04T13:54:49;1.03;;;0.50;;
5507;SDS011;2776;51.046;6.772;2023-01-04T13:57:16;0.40;;;0.40;;
5507;SDS011;2776;51.046;6.772;2023-01-04T13:59:45;1.53;;;0.57;;
5507;SDS011;2776;51.046;6.772;2023-01-04T14:02:16;0.93;;;0.60;;
5507;SDS011;2776;51.046;6.772;2023-01-04T14:04:45;0.90;;;0.47;;
5507;SDS011;2776;51.046;6.772;2023-01-04T14:07:17;0.70;;;0.70;;
5507;SDS011;2776;51.046;6.772;2023-01-04T14:09:47;1.33;;;0.40;;
5507;SDS011;2776;51.046;6.772;2023-01-04T14:12:18;1.77;;;0.50;;
5507;SDS011;2776;51.046;6.772;2023-01-04T14:14:48;1.13;;;0.37;;
5507;SDS011;2776;51.046;6.772;2023-01-04T14:17:20;1.90;;;0.73;;
5507;SDS011;2776;51.046;6.772;2023-01-04T14:19:51;0.63;;;0.47;;
5507;SDS011;2776;51.046;6.772;2023-01-04T14:33:56;0.40;;;0.40;;
5507;SDS011;2776;51.046;6.772;2023-01-04T14:36:24;1.27;;;0.30;;
5507;SDS011;2776;51.046;6.772;2023-01-04T14:38:55;0.40;;;0.30;;
5507;SDS011;2776;51.046;6.772;2023-01-04T14:41:35;0.37;;;0.20;;
5507;SDS011;2776;51.046;6.772;2023-01-04T14:44:10;0.40;;;0.20;;
5507;SDS011;2776;51.046;6.772;2023-01-04T14:46:38;0.10;;;0.10;;
5507;SDS011;2776;51.046;6.772;2023-01-04T14:49:07;1.80;;;0.90;;
5507;SDS011;2776;51.046;6.772;2023-01-04T14:51:35;0.10;;;0.10;;
5507;SDS011;2776;51.046;6.772;2023-01-04T14:54:06;0.17;;;0.17;;
5507;SDS011;2776;51.046;6.772;2023-01-04T14:56:36;0.30;;;0.20;;
5507;SDS011;2776;51.046;6.772;2023-01-04T14:59:03;0.23;;;0.13;;
5507;SDS011;2776;51.046;6.772;2023-01-04T15:01:30;0.80;;;0.20;;
5507;SDS011;2776;51.046;6.772;2023-01-04T15:03:56;0.30;;;0.30;;
5507;SDS011;2776;51.046;6.772;2023-01-04T15:06:23;0.30;;;0.30;;
5507;SDS011;2776;51.046;6.772;2023-01-04T15:08:51;0.70;;;0.27;;
5507;SDS011;2776;51.046;6.772;2023-01-04T15:11:17;0.27;;;0.23;;
5507;SDS011;2776;51.046;6.772;2023-01-04T15:13:46;0.30;;;0.20;;
5507;SDS011;2776;51.046;6.772;2023-01-04T15:16:13;0.20;;;0.20;;
5507;SDS011;2776;51.046;6.772;2023-01-04T15:18:41;0.30;;;0.23;;
5507;SDS011;2776;51.046;6.772;2023-01-04T15:21:08;0.23;;;0.23;;
5507;SDS011;2776;51.046;6.772;2023-01-04T15:23:35;0.63;;;0.20;;
5507;SDS011;2776;51.046;6.772;2023-01-04T15:26:03;1.03;;;0.30;;
5507;SDS011;2776;51.046;6.772;2023-01-04T15:28:30;0.37;;;0.37;;
5507;SDS011;2776;51.046;6.772;2023-01-04T15:30:58;0.50;;;0.30;;
5507;SDS011;2776;51.046;6.772;2023-01-04T15:33:26;0.40;;;0.20;;
5507;SDS011;2776;51.046;6.772;2023-01-04T15:35:59;0.50;;;0.20;;
5507;SDS011;2776;51.046;6.772;2023-01-04T15:38:26;0.63;;;0.60;;
5507;SDS011;2776;51.046;6.772;2023-01-04T15:40:58;0.23;;;0.23;;
5507;SDS011;2776;51.046;6.772;2023-01-04T15:43:25;0.30;;;0.30;;
5507;SDS011;2776;51.046;6.772;2023-01-04T15:45:51;0.20;;;0.10;;
5507;SDS011;2776;51.046;6.772;2023-01-04T15:48:19;0.20;;;0.20;;
5507;SDS011;2776;51.046;6.772;2023-01-04T15:50:46;0.10;;;0.10;;
5507;SDS011;2776;51.046;6.772;2023-01-04T15:53:13;0.10;;;0.10;;
5507;SDS011;2776;51.046;6.772;2023-01-04T15:55:40;0.13;;;0.13;;
5507;SDS011;2776;51.046;6.772;2023-01-04T15:58:06;0.33;;;0.10;;
5507;SDS011;2776;51.046;6.772;2023-01-04T16:00:33;0.33;;;0.30;;
5507;SDS011;2776;51.046;6.772;2023-01-04T16:03:02;0.40;;;0.30;;
5507;SDS011;2776;51.046;6.772;2023-01-04T16:05:30;0.40;;;0.40;;